createdAt,value
2023-03-25T00:02:05.925Z,59.39
2023-03-25T00:04:39.522Z,59.36
2023-03-25T00:07:08.160Z,59.43
2023-03-25T00:09:36.644Z,59.38
2023-03-25T00:12:06.218Z,59.28
2023-03-25T00:14:34.840Z,59.19
2023-03-25T00:17:07.072Z,59.09
2023-03-25T00:19:35.915Z,58.91
2023-03-25T00:22:04.398Z,58.95
2023-03-25T00:24:33.378Z,58.89
2023-03-25T00:27:01.762Z,58.86
2023-03-25T00:29:35.770Z,58.69
2023-03-25T00:32:05.700Z,58.53
2023-03-25T00:34:35.503Z,58.34
2023-03-25T00:37:06.031Z,58.23
2023-03-25T00:39:36.259Z,58.17
2023-03-25T00:42:11.399Z,57.87
2023-03-25T00:44:41.198Z,57.70
2023-03-25T00:47:11.958Z,57.47
2023-03-25T00:49:40.428Z,57.21
2023-03-25T00:52:08.809Z,57.07
2023-03-25T00:54:38.416Z,56.79
2023-03-25T00:57:06.851Z,56.64
2023-03-25T00:59:36.510Z,56.62
2023-03-25T01:02:05.408Z,56.84
2023-03-25T01:04:40.048Z,56.67
2023-03-25T01:07:09.885Z,56.55
2023-03-25T01:09:39.764Z,56.53
2023-03-25T01:12:08.549Z,56.41
2023-03-25T01:14:36.938Z,56.19
2023-03-25T01:17:05.515Z,56.09
2023-03-25T01:19:34.717Z,55.82
2023-03-25T01:22:03.607Z,55.77
2023-03-25T01:24:32.822Z,55.70
2023-03-25T01:27:01.396Z,55.43
2023-03-25T01:29:30.906Z,55.28
2023-03-25T01:31:59.396Z,54.93
2023-03-25T01:34:27.970Z,54.73
2023-03-25T01:36:56.662Z,54.71
2023-03-25T01:39:25.960Z,54.57
2023-03-25T01:41:55.560Z,54.84
2023-03-25T01:44:24.470Z,55.08
2023-03-25T01:46:54.512Z,55.03
2023-03-25T01:49:30.445Z,55.14
2023-03-25T01:52:06.950Z,55.31
2023-03-25T01:54:35.496Z,55.12
2023-03-25T01:57:05.568Z,55.14
2023-03-25T01:59:34.102Z,55.03
2023-03-25T02:02:04.140Z,55.03
2023-03-25T02:04:39.394Z,55.02
2023-03-25T02:07:08.865Z,55.03
2023-03-25T02:09:40.328Z,55.12
2023-03-25T02:12:09.144Z,55.20
2023-03-25T02:14:39.366Z,55.09
2023-03-25T02:17:15.805Z,54.97
2023-03-25T02:20:14.088Z,54.80
2023-03-25T02:23:11.042Z,54.49
2023-03-25T02:25:56.624Z,54.45
2023-03-25T02:28:47.528Z,54.42
2023-03-25T02:31:38.309Z,54.39
2023-03-25T02:34:43.378Z,54.29
2023-03-25T02:37:17.615Z,54.47
2023-03-25T02:39:52.546Z,54.67
2023-03-25T02:42:37.608Z,54.92
2023-03-25T02:45:13.766Z,55.34
2023-03-25T02:47:46.780Z,55.69
2023-03-25T02:50:22.409Z,55.91
2023-03-25T02:52:52.321Z,56.40
2023-03-25T02:55:23.060Z,56.97
2023-03-25T02:57:53.311Z,57.62
2023-03-25T03:00:28.772Z,58.09
2023-03-25T03:03:00.423Z,58.46
2023-03-25T03:05:35.023Z,58.89
2023-03-25T03:08:15.078Z,59.01
2023-03-25T03:10:45.393Z,58.73
2023-03-25T03:13:49.417Z,58.94
2023-03-25T03:16:48.714Z,58.62
2023-03-25T03:19:34.563Z,58.37
2023-03-25T03:22:43.854Z,57.98
2023-03-25T03:25:23.084Z,57.20
2023-03-25T03:28:16.966Z,57.11
2023-03-25T03:30:58.676Z,57.09
2023-03-25T03:33:33.315Z,57.14
2023-03-25T03:36:04.668Z,56.99
2023-03-25T03:38:37.319Z,57.05
2023-03-25T03:44:14.363Z,56.77
2023-03-25T03:46:48.544Z,56.95
2023-03-25T03:49:22.346Z,57.07
2023-03-25T03:51:59.153Z,57.49
2023-03-25T03:54:30.167Z,57.78
2023-03-25T03:57:03.393Z,57.89
2023-03-25T04:00:14.652Z,58.25
2023-03-25T04:02:54.272Z,58.34
2023-03-25T04:05:23.195Z,58.62
2023-03-25T04:08:17.476Z,59.24
2023-03-25T04:10:52.946Z,59.61
2023-03-25T04:13:22.016Z,60.01
2023-03-25T04:15:52.111Z,60.05
2023-03-25T04:18:23.692Z,59.68
2023-03-25T04:20:52.086Z,59.41
2023-03-25T04:23:21.580Z,59.33
2023-03-25T04:25:53.673Z,59.25
2023-03-25T04:28:28.069Z,58.62
2023-03-25T04:30:57.791Z,58.40
2023-03-25T04:33:26.471Z,58.18
2023-03-25T04:35:55.020Z,58.10
2023-03-25T04:38:23.640Z,57.96
2023-03-25T04:40:52.563Z,57.83
2023-03-25T04:43:21.221Z,57.67
2023-03-25T04:45:55.021Z,57.53
2023-03-25T04:48:26.204Z,57.75
2023-03-25T04:50:56.192Z,57.59
2023-03-25T04:53:26.124Z,57.53
2023-03-25T04:55:55.328Z,57.51
2023-03-25T04:58:23.891Z,57.51
2023-03-25T05:00:53.102Z,57.61
2023-03-25T05:03:24.878Z,57.53
2023-03-25T05:05:53.948Z,57.35
2023-03-25T05:08:23.564Z,57.46
2023-03-25T05:10:52.862Z,57.64
2023-03-25T05:13:24.623Z,57.81
2023-03-25T05:15:54.250Z,57.81
2023-03-25T05:18:22.814Z,57.81
2023-03-25T05:21:01.131Z,57.70
2023-03-25T05:23:31.867Z,57.68
2023-03-25T05:26:00.254Z,57.55
2023-03-25T05:28:31.844Z,57.72
2023-03-25T05:31:00.303Z,57.63
2023-03-25T05:33:29.792Z,57.82
2023-03-25T05:35:58.206Z,57.77
2023-03-25T05:38:26.962Z,57.53
2023-03-25T05:40:55.343Z,57.44
2023-03-25T05:43:24.848Z,57.30
2023-03-25T05:45:53.776Z,56.87
2023-03-25T05:48:23.249Z,56.57
2023-03-25T05:50:51.633Z,56.37
2023-03-25T05:53:21.033Z,56.33
2023-03-25T05:55:52.396Z,56.17
2023-03-25T05:58:25.400Z,56.02
2023-03-25T06:00:54.988Z,55.84
2023-03-25T06:03:26.445Z,55.54
2023-03-25T06:05:56.968Z,55.47
2023-03-25T06:08:26.388Z,55.43
2023-03-25T06:11:01.101Z,55.57
2023-03-25T06:13:29.899Z,55.56
2023-03-25T06:16:00.321Z,55.43
2023-03-25T06:18:34.847Z,55.09
2023-03-25T06:21:04.453Z,55.08
2023-03-25T06:23:35.808Z,55.27
2023-03-25T06:26:04.602Z,55.42
2023-03-25T06:28:34.708Z,55.44
2023-03-25T06:31:27.980Z,55.52
2023-03-25T06:33:56.985Z,55.42
2023-03-25T06:36:27.714Z,55.73
2023-03-25T06:38:58.665Z,55.91
2023-03-25T06:41:36.110Z,55.94
2023-03-25T06:44:17.127Z,56.13
2023-03-25T06:47:12.035Z,55.90
2023-03-25T06:49:50.954Z,55.76
2023-03-25T06:52:19.672Z,55.68
2023-03-25T06:54:51.507Z,55.85
2023-03-25T06:57:20.001Z,55.88
2023-03-25T06:59:49.928Z,55.96
2023-03-25T07:02:18.391Z,55.28
2023-03-25T07:04:47.029Z,55.39
2023-03-25T07:07:16.286Z,55.78
2023-03-25T07:09:46.813Z,55.62
2023-03-25T07:12:15.189Z,55.69
2023-03-25T07:14:57.499Z,55.61
2023-03-25T07:17:26.030Z,55.60
2023-03-25T07:19:58.369Z,55.70
2023-03-25T07:22:28.070Z,55.82
2023-03-25T07:24:58.604Z,55.93
2023-03-25T07:27:29.235Z,55.94
2023-03-25T07:30:04.927Z,55.70
2023-03-25T07:32:37.273Z,55.52
2023-03-25T07:35:06.884Z,55.45
2023-03-25T07:37:35.681Z,55.31
2023-03-25T07:40:04.859Z,55.28
2023-03-25T07:42:33.753Z,55.08
2023-03-25T07:45:44.354Z,54.90
2023-03-25T07:48:17.108Z,54.94
2023-03-25T07:50:46.322Z,54.92
2023-03-25T07:53:16.536Z,54.89
2023-03-25T07:55:51.225Z,54.65
2023-03-25T07:58:19.965Z,54.13
2023-03-25T08:00:49.353Z,54.25
2023-03-25T08:03:18.402Z,54.28
2023-03-25T08:05:49.757Z,54.12
2023-03-25T08:08:19.922Z,54.18
2023-03-25T08:10:48.920Z,53.74
2023-03-25T08:13:20.166Z,53.49
2023-03-25T08:15:51.058Z,53.82
2023-03-25T08:18:20.205Z,53.95
2023-03-25T08:20:51.255Z,53.97
2023-03-25T08:23:20.365Z,53.89
2023-03-25T08:25:49.789Z,53.89
2023-03-25T08:28:23.728Z,53.77
2023-03-25T08:30:55.837Z,53.42
2023-03-25T08:33:39.871Z,53.52
2023-03-25T08:36:10.753Z,53.68
2023-03-25T08:38:39.308Z,53.99
2023-03-25T08:41:08.144Z,54.23
2023-03-25T08:43:36.582Z,54.08
2023-03-25T08:46:08.250Z,54.00
2023-03-25T08:48:38.042Z,53.83
2023-03-25T08:51:08.171Z,53.64
2023-03-25T08:53:37.987Z,53.54
2023-03-25T08:56:07.605Z,53.48
2023-03-25T08:58:38.426Z,53.52
2023-03-25T09:01:07.419Z,53.19
2023-03-25T09:03:38.876Z,53.39
2023-03-25T09:06:08.879Z,52.39
2023-03-25T09:08:37.591Z,51.40
2023-03-25T09:11:07.523Z,51.57
2023-03-25T09:13:40.080Z,51.83
2023-03-25T09:16:09.858Z,52.02
2023-03-25T09:18:45.156Z,52.14
2023-03-25T09:21:13.825Z,52.39
2023-03-25T09:23:43.570Z,52.58
2023-03-25T09:26:12.427Z,52.60
2023-03-25T09:28:41.213Z,52.66
2023-03-25T09:31:10.551Z,52.91
2023-03-25T09:33:39.112Z,52.83
2023-03-25T09:36:08.460Z,52.69
2023-03-25T09:38:40.163Z,52.86
2023-03-25T09:41:48.176Z,53.20
2023-03-25T09:44:27.308Z,52.75
2023-03-25T09:46:56.017Z,52.63
2023-03-25T09:49:26.031Z,52.47
2023-03-25T09:51:59.823Z,52.66
2023-03-25T09:54:36.392Z,52.59
2023-03-25T09:57:07.402Z,52.34
2023-03-25T09:59:49.405Z,52.01
2023-03-25T10:02:40.048Z,52.02
2023-03-25T10:05:43.083Z,51.78
2023-03-25T10:08:45.106Z,51.66
2023-03-25T10:11:32.636Z,51.54
2023-03-25T10:14:23.238Z,51.00
2023-03-25T10:16:58.275Z,51.08
2023-03-25T10:19:42.425Z,50.97
2023-03-25T10:22:36.925Z,50.92
2023-03-25T10:25:10.316Z,51.15
2023-03-25T10:27:41.910Z,51.10
2023-03-25T10:30:18.836Z,51.31
2023-03-25T10:32:59.391Z,51.29
2023-03-25T10:35:32.646Z,51.20
2023-03-25T10:38:14.471Z,51.57
2023-03-25T10:40:50.548Z,51.12
2023-03-25T10:43:31.554Z,50.67
2023-03-25T10:46:13.434Z,50.91
2023-03-25T10:48:42.341Z,50.90
2023-03-25T10:51:12.395Z,50.89
2023-03-25T10:53:49.886Z,50.42
2023-03-25T10:56:43.165Z,50.50
2023-03-25T10:59:45.602Z,50.34
2023-03-25T11:02:22.890Z,49.72
2023-03-25T11:04:59.054Z,49.56
2023-03-25T11:07:30.658Z,49.49
2023-03-25T11:10:14.857Z,49.26
2023-03-25T11:12:48.666Z,49.11
2023-03-25T11:15:29.600Z,49.12
2023-03-25T11:18:26.182Z,49.16
2023-03-25T11:21:15.048Z,49.23
2023-03-25T11:23:51.212Z,49.18
2023-03-25T11:26:24.926Z,49.48
2023-03-25T11:28:57.296Z,49.64
2023-03-25T11:31:27.554Z,49.52
2023-03-25T11:34:06.624Z,49.87
2023-03-25T11:36:57.046Z,50.48
2023-03-25T11:39:37.105Z,50.99
2023-03-25T11:42:17.076Z,51.00
2023-03-25T11:44:52.774Z,50.91
2023-03-25T11:47:26.460Z,51.13
2023-03-25T11:49:54.899Z,51.33
2023-03-25T11:52:28.304Z,51.39
2023-03-25T11:55:00.589Z,51.95
2023-03-25T11:57:36.355Z,52.39
2023-03-25T12:00:36.143Z,52.93
2023-03-25T12:03:14.756Z,53.34
2023-03-25T12:05:43.566Z,53.69
2023-03-25T12:08:15.641Z,54.00
2023-03-25T12:10:52.923Z,54.52
2023-03-25T12:13:26.828Z,54.72
2023-03-25T12:16:12.161Z,55.23
2023-03-25T12:19:19.197Z,55.43
2023-03-25T12:22:16.252Z,55.31
2023-03-25T12:24:48.727Z,54.89
2023-03-25T12:27:36.773Z,54.71
2023-03-25T12:30:15.416Z,54.92
2023-03-25T12:33:00.393Z,55.29
2023-03-25T12:35:35.728Z,55.57
2023-03-25T12:38:19.653Z,55.48
2023-03-25T12:40:51.573Z,55.50
2023-03-25T12:43:26.764Z,55.81
2023-03-25T12:46:09.601Z,56.12
2023-03-25T12:48:45.436Z,56.37
2023-03-25T12:51:17.925Z,56.82
2023-03-25T12:53:49.263Z,56.96
2023-03-25T12:56:30.002Z,57.09
2023-03-25T12:59:16.645Z,57.21
2023-03-25T13:01:54.877Z,57.01
2023-03-25T13:04:39.834Z,57.07
2023-03-25T13:07:19.784Z,57.29
2023-03-25T13:09:59.533Z,56.83
2023-03-25T13:12:32.008Z,55.97
2023-03-25T13:15:07.043Z,56.19
2023-03-25T13:18:10.680Z,55.57
2023-03-25T13:20:43.437Z,55.95
2023-03-25T13:23:14.101Z,55.46
2023-03-25T13:25:53.820Z,55.57
2023-03-25T13:28:25.730Z,55.49
2023-03-25T13:30:54.437Z,56.15
2023-03-25T13:33:25.314Z,56.35
2023-03-25T13:36:01.607Z,54.97
2023-03-25T13:38:33.851Z,54.05
2023-03-25T13:41:12.570Z,54.81
2023-03-25T13:43:47.818Z,54.55
2023-03-25T13:46:21.821Z,54.44
2023-03-25T13:49:14.073Z,54.31
2023-03-25T13:51:42.867Z,54.28
2023-03-25T13:54:22.558Z,54.06
2023-03-25T13:57:11.494Z,54.00
2023-03-25T13:59:48.781Z,54.77
2023-03-25T14:02:25.411Z,54.97
2023-03-25T14:05:29.730Z,55.22
2023-03-25T14:08:21.495Z,55.44
2023-03-25T14:11:09.952Z,55.76
2023-03-25T14:13:42.121Z,55.97
2023-03-25T14:16:18.264Z,56.21
2023-03-25T14:18:49.241Z,56.44
2023-03-25T14:21:27.542Z,56.46
2023-03-25T14:24:05.045Z,56.48
2023-03-25T14:26:34.859Z,56.22
2023-03-25T14:29:22.691Z,56.16
2023-03-25T14:32:01.835Z,56.41
2023-03-25T14:34:30.725Z,56.56
2023-03-25T14:36:59.927Z,56.65
2023-03-25T14:39:28.447Z,56.67
2023-03-25T14:42:11.550Z,56.91
2023-03-25T14:44:50.030Z,56.73
2023-03-25T14:47:37.092Z,56.83
2023-03-25T14:50:20.936Z,56.56
2023-03-25T14:52:52.103Z,56.67
2023-03-25T14:55:22.111Z,57.06
2023-03-25T14:57:52.613Z,57.38
2023-03-25T15:00:29.412Z,57.23
2023-03-25T15:03:02.017Z,57.40
2023-03-25T15:05:32.221Z,57.45
2023-03-25T15:08:09.718Z,57.44
2023-03-25T15:10:43.248Z,57.11
2023-03-25T15:13:24.996Z,57.21
2023-03-25T15:16:00.981Z,57.34
2023-03-25T15:18:35.998Z,57.35
2023-03-25T15:21:08.059Z,57.71
2023-03-25T15:23:47.716Z,57.83
2023-03-25T15:26:32.479Z,57.81
2023-03-25T15:29:13.038Z,57.97
2023-03-25T15:32:03.228Z,58.28
2023-03-25T15:34:41.337Z,58.32
2023-03-25T15:37:46.544Z,58.47
2023-03-25T15:40:37.601Z,58.69
2023-03-25T15:43:31.496Z,58.91
2023-03-25T15:46:29.048Z,59.26
2023-03-25T15:49:06.643Z,59.46
2023-03-25T15:51:47.209Z,59.75
2023-03-25T15:54:42.382Z,59.69
2023-03-25T15:57:23.503Z,59.94
2023-03-25T16:01:42.030Z,60.22
2023-03-25T16:04:42.609Z,60.05
2023-03-25T16:07:13.147Z,59.90
2023-03-25T16:09:48.321Z,59.89
2023-03-25T16:12:21.886Z,59.83
2023-03-25T16:14:51.355Z,59.97
2023-03-25T16:17:22.349Z,59.69
2023-03-25T16:19:55.307Z,59.75
2023-03-25T16:22:33.024Z,59.75
2023-03-25T16:25:04.483Z,59.93
2023-03-25T16:27:37.829Z,59.81
2023-03-25T16:30:26.430Z,60.32
2023-03-25T16:33:05.767Z,60.47
2023-03-25T16:35:52.913Z,60.73
2023-03-25T16:38:23.330Z,61.02
2023-03-25T16:40:52.394Z,61.27
2023-03-25T16:43:24.386Z,61.20
2023-03-25T16:45:56.179Z,61.09
2023-03-25T16:48:33.757Z,60.95
2023-03-25T16:51:22.092Z,61.06
2023-03-25T16:53:53.858Z,61.50
2023-03-25T16:56:27.963Z,61.69
2023-03-25T16:59:07.919Z,61.80
2023-03-25T17:01:39.595Z,62.25
2023-03-25T17:04:19.125Z,62.54
2023-03-25T17:07:02.088Z,62.97
2023-03-25T17:09:34.544Z,63.39
2023-03-25T17:12:08.042Z,63.60
2023-03-25T17:14:38.182Z,64.01
2023-03-25T17:17:49.052Z,64.48
2023-03-25T17:20:23.144Z,64.89
2023-03-25T17:23:18.349Z,65.59
2023-03-25T17:25:53.707Z,65.90
2023-03-25T17:28:31.290Z,66.19
2023-03-25T17:30:59.908Z,66.29
2023-03-25T17:33:36.349Z,66.51
2023-03-25T17:36:09.247Z,66.73
2023-03-25T17:38:48.014Z,67.03
2023-03-25T17:41:17.852Z,67.25
2023-03-25T17:43:51.049Z,67.37
2023-03-25T17:46:27.239Z,67.26
2023-03-25T17:48:57.869Z,67.54
2023-03-25T17:51:27.865Z,67.94
2023-03-25T17:53:56.483Z,68.13
2023-03-25T17:56:26.899Z,68.36
2023-03-25T17:59:07.589Z,68.47
2023-03-25T18:01:37.951Z,68.26
2023-03-25T18:04:07.205Z,68.34
2023-03-25T18:06:37.947Z,68.46
2023-03-25T18:09:21.194Z,68.42
2023-03-25T18:11:54.771Z,68.55
2023-03-25T18:14:25.513Z,68.67
2023-03-25T18:16:54.397Z,68.91
2023-03-25T18:19:26.361Z,69.16
2023-03-25T18:21:55.312Z,69.16
2023-03-25T18:24:24.559Z,69.18
2023-03-25T18:26:53.040Z,69.17
2023-03-25T18:29:24.512Z,69.45
2023-03-25T18:31:53.188Z,69.30
2023-03-25T18:34:23.943Z,69.37
2023-03-25T18:36:54.271Z,69.54
2023-03-25T18:39:24.474Z,69.34
2023-03-25T18:41:53.060Z,69.37
2023-03-25T18:44:21.653Z,69.57
2023-03-25T18:46:51.565Z,69.69
2023-03-25T18:49:20.600Z,69.81
2023-03-25T18:51:49.245Z,69.88
2023-03-25T18:54:17.948Z,70.11
2023-03-25T18:56:46.757Z,70.27
2023-03-25T18:59:20.945Z,70.46
2023-03-25T19:01:49.645Z,70.86
2023-03-25T19:04:18.522Z,71.03
2023-03-25T19:06:47.109Z,71.34
2023-03-25T19:09:18.440Z,71.46
2023-03-25T19:11:47.552Z,71.60
2023-03-25T19:14:16.594Z,71.48
2023-03-25T19:16:57.162Z,71.49
2023-03-25T19:19:31.230Z,71.54
2023-03-25T19:22:00.942Z,71.59
2023-03-25T19:24:29.747Z,71.69
2023-03-25T19:26:59.139Z,71.64
2023-03-25T19:29:28.041Z,71.59
2023-03-25T19:31:56.625Z,71.25
2023-03-25T19:34:25.511Z,71.45
2023-03-25T19:37:02.774Z,71.66
2023-03-25T19:39:31.897Z,72.10
2023-03-25T19:42:01.104Z,72.44
2023-03-25T19:44:30.194Z,72.60
2023-03-25T19:47:01.758Z,72.57
2023-03-25T19:49:39.419Z,73.10
2023-03-25T19:52:08.753Z,73.71
2023-03-25T19:54:40.827Z,74.38
2023-03-25T19:57:10.476Z,74.68
2023-03-25T19:59:45.068Z,74.79
2023-03-25T20:02:15.842Z,75.11
2023-03-25T20:04:44.902Z,75.23
2023-03-25T20:07:20.645Z,75.44
2023-03-25T20:09:49.524Z,75.46
2023-03-25T20:12:18.133Z,75.52
2023-03-25T20:14:47.330Z,75.75
2023-03-25T20:17:17.451Z,76.02
2023-03-25T20:19:45.836Z,76.25
2023-03-25T20:22:24.125Z,76.36
2023-03-25T20:24:53.144Z,76.49
2023-03-25T20:27:21.723Z,76.61
2023-03-25T20:29:50.104Z,76.85
2023-03-25T20:32:21.407Z,76.76
2023-03-25T20:34:52.655Z,76.65
2023-03-25T20:37:21.288Z,76.77
2023-03-25T20:39:50.924Z,76.82
2023-03-25T20:42:19.487Z,76.96
2023-03-25T20:44:47.997Z,77.02
2023-03-25T20:47:16.549Z,77.06
2023-03-25T20:49:44.932Z,77.21
2023-03-25T20:52:14.443Z,77.25
2023-03-25T20:54:44.375Z,77.16
2023-03-25T20:57:12.866Z,77.04
2023-03-25T20:59:42.963Z,76.96
2023-03-25T21:02:11.883Z,76.82
2023-03-25T21:04:40.442Z,77.00
2023-03-25T21:07:10.574Z,76.80
2023-03-25T21:09:38.941Z,76.63
2023-03-25T21:12:07.540Z,76.62
2023-03-25T21:14:37.865Z,76.97
2023-03-25T21:17:06.861Z,77.00
2023-03-25T21:19:38.814Z,76.81
2023-03-25T21:22:07.401Z,76.50
2023-03-25T21:24:37.009Z,76.44
2023-03-25T21:27:05.492Z,76.41
2023-03-25T21:29:34.385Z,76.36
2023-03-25T21:32:03.154Z,76.31
2023-03-25T21:34:32.887Z,76.27
2023-03-25T21:37:03.931Z,76.77
2023-03-25T21:39:32.927Z,77.14
2023-03-25T21:42:09.769Z,77.53
2023-03-25T21:44:44.135Z,77.78
2023-03-25T21:47:14.667Z,77.90
2023-03-25T21:49:43.038Z,77.94
2023-03-25T21:52:13.240Z,77.95
2023-03-25T21:54:43.723Z,77.95
2023-03-25T21:57:12.638Z,78.08
2023-03-25T21:59:40.964Z,78.25
2023-03-25T22:02:14.592Z,78.17
2023-03-25T22:04:43.146Z,78.07
2023-03-25T22:07:11.629Z,78.00
2023-03-25T22:09:40.946Z,77.93
2023-03-25T22:12:09.722Z,77.77
2023-03-25T22:14:39.944Z,77.74
2023-03-25T22:17:13.274Z,77.64
2023-03-25T22:19:42.746Z,77.55
2023-03-25T22:22:19.357Z,77.69
2023-03-25T22:24:49.669Z,77.89
2023-03-25T22:27:18.233Z,77.90
2023-03-25T22:29:50.810Z,77.93
2023-03-25T22:32:19.703Z,77.74
2023-03-25T22:34:48.082Z,77.58
2023-03-25T22:37:16.666Z,77.71
2023-03-25T22:39:44.947Z,77.97
2023-03-25T22:42:13.635Z,77.72
2023-03-25T22:44:45.007Z,77.99
2023-03-25T22:47:13.671Z,78.19
2023-03-25T22:49:42.155Z,78.57
2023-03-25T22:52:11.355Z,79.02
2023-03-25T22:54:40.074Z,79.60
2023-03-25T22:57:08.918Z,80.17
2023-03-25T22:59:39.574Z,80.39
2023-03-25T23:02:08.053Z,80.72
2023-03-25T23:04:38.287Z,81.39
2023-03-25T23:07:08.612Z,81.61
2023-03-25T23:09:44.217Z,82.05
2023-03-25T23:12:17.562Z,82.20
2023-03-25T23:14:50.140Z,82.64
2023-03-25T23:17:20.686Z,83.07
2023-03-25T23:19:49.400Z,83.42
2023-03-25T23:22:18.153Z,83.62
2023-03-25T23:24:46.727Z,83.70
2023-03-25T23:27:15.531Z,83.94
2023-03-25T23:29:45.259Z,84.24
2023-03-25T23:32:14.957Z,84.21
2023-03-25T23:34:43.847Z,84.29
2023-03-25T23:37:12.655Z,84.26
2023-03-25T23:39:42.358Z,84.21
2023-03-25T23:42:11.654Z,84.13
2023-03-25T23:44:40.060Z,83.99
2023-03-25T23:47:08.365Z,83.99
2023-03-25T23:49:38.689Z,84.38
2023-03-25T23:52:12.648Z,84.51
2023-03-25T23:54:42.359Z,84.42
2023-03-25T23:57:11.186Z,84.62
2023-03-25T23:59:40.970Z,84.77
